createdAt,value
2023-01-03T00:00:48.952Z,100974.69
2023-01-03T00:03:21.840Z,100975.92
2023-01-03T00:05:54.629Z,100981.69
2023-01-03T00:08:28.280Z,100982.47
2023-01-03T00:11:01.784Z,100982.33
2023-01-03T00:13:34.514Z,100976.77
2023-01-03T00:16:07.626Z,100984.27
2023-01-03T00:18:40.599Z,100976.47
2023-01-03T00:21:13.842Z,100981.84
2023-01-03T00:23:46.757Z,100969.92
2023-01-03T00:26:20.089Z,100967.09
2023-01-03T00:28:53.065Z,100963.76
2023-01-03T00:31:26.257Z,100954.47
2023-01-03T00:34:00.105Z,100953.78
2023-01-03T00:36:33.334Z,100950.70
2023-01-03T00:39:07.164Z,100947.66
2023-01-03T00:41:40.801Z,100948.56
2023-01-03T00:44:14.091Z,100941.89
2023-01-03T00:46:47.228Z,100925.25
2023-01-03T00:49:20.350Z,100911.45
2023-01-03T00:51:55.062Z,100911.45
2023-01-03T00:54:28.203Z,100909.98
2023-01-03T00:57:01.145Z,100903.31
2023-01-03T00:59:34.430Z,100900.84
2023-01-03T01:02:07.224Z,100898.33
2023-01-03T01:04:40.660Z,100895.83
2023-01-03T01:07:14.104Z,100903.15
2023-01-03T01:09:47.295Z,100901.34
2023-01-03T01:12:20.180Z,100893.51
2023-01-03T01:14:53.195Z,100898.71
2023-01-03T01:17:28.353Z,100890.30
2023-01-03T01:20:01.317Z,100895.11
2023-01-03T01:22:36.562Z,100884.73
2023-01-03T01:25:09.540Z,100881.75
2023-01-03T01:27:43.017Z,100879.95
2023-01-03T01:30:15.804Z,100885.05
2023-01-03T01:32:48.903Z,100891.00
2023-01-03T01:35:21.607Z,100885.74
2023-01-03T01:37:54.332Z,100893.52
2023-01-03T01:40:28.036Z,100887.33
2023-01-03T01:43:22.801Z,100893.01
2023-01-03T01:45:55.976Z,100889.66
2023-01-03T01:48:28.812Z,100878.16
2023-01-03T01:51:01.886Z,100877.14
2023-01-03T01:53:37.032Z,100878.84
2023-01-03T01:56:13.236Z,100880.30
2023-01-03T01:58:49.691Z,100885.89
2023-01-03T02:01:24.417Z,100884.20
2023-01-03T02:04:04.934Z,100885.63
2023-01-03T02:06:37.568Z,100878.00
2023-01-03T02:09:10.769Z,100872.20
2023-01-03T02:12:17.047Z,100864.97
2023-01-03T02:15:15.680Z,100868.45
2023-01-03T02:18:29.678Z,100864.43
2023-01-03T02:21:29.612Z,100860.95
2023-01-03T02:24:15.599Z,100846.45
2023-01-03T02:27:16.094Z,100842.95
2023-01-03T02:30:17.667Z,100843.84
2023-01-03T02:33:28.217Z,100850.55
2023-01-03T02:36:26.716Z,100848.88
2023-01-03T02:39:13.473Z,100847.58
2023-01-03T02:41:58.806Z,100841.24
2023-01-03T02:44:35.661Z,100832.05
2023-01-03T02:47:11.716Z,100829.19
2023-01-03T02:49:53.149Z,100829.95
2023-01-03T02:52:28.751Z,100828.38
2023-01-03T02:55:24.254Z,100825.52
2023-01-03T02:58:11.027Z,100821.49
2023-01-03T03:00:48.938Z,100821.09
2023-01-03T03:03:25.992Z,100819.94
2023-01-03T03:06:06.129Z,100821.23
2023-01-03T03:08:39.541Z,100821.63
2023-01-03T03:11:31.291Z,100822.79
2023-01-03T03:14:20.583Z,100827.20
2023-01-03T03:16:56.538Z,100827.08
2023-01-03T03:19:53.517Z,100826.59
2023-01-03T03:23:06.727Z,100823.08
2023-01-03T03:25:50.433Z,100817.77
2023-01-03T03:28:37.119Z,100824.89
2023-01-03T03:31:20.286Z,100825.03
2023-01-03T03:34:09.720Z,100823.73
2023-01-03T03:37:01.889Z,100810.92
2023-01-03T03:39:53.627Z,100807.55
2023-01-03T03:43:06.596Z,100808.84
2023-01-03T03:45:56.790Z,100806.11
2023-01-03T03:48:38.672Z,100806.64
2023-01-03T03:51:15.459Z,100803.44
2023-01-03T03:53:49.019Z,100800.45
2023-01-03T03:56:26.064Z,100796.03
2023-01-03T03:59:02.667Z,100803.17
2023-01-03T04:01:38.259Z,100807.19
2023-01-03T04:04:21.442Z,100802.91
2023-01-03T04:06:55.112Z,100796.70
2023-01-03T04:09:27.874Z,100797.38
2023-01-03T04:12:00.964Z,100795.06
2023-01-03T04:14:34.032Z,100799.44
2023-01-03T04:17:06.836Z,100798.41
2023-01-03T04:19:39.985Z,100800.73
2023-01-03T04:22:12.835Z,100804.60
2023-01-03T04:24:45.484Z,100801.61
2023-01-03T04:27:18.435Z,100797.84
2023-01-03T04:29:51.345Z,100800.30
2023-01-03T04:32:24.375Z,100786.96
2023-01-03T04:34:57.054Z,100781.11
2023-01-03T04:37:32.095Z,100771.69
2023-01-03T04:40:05.049Z,100768.70
2023-01-03T04:42:55.959Z,100775.80
2023-01-03T04:45:28.967Z,100766.73
2023-01-03T04:48:02.337Z,100766.73
2023-01-03T04:50:35.564Z,100766.20
2023-01-03T04:53:09.227Z,100758.44
2023-01-03T04:55:48.374Z,100761.70
2023-01-03T04:58:22.147Z,100757.45
2023-01-03T05:01:07.749Z,100754.73
2023-01-03T05:03:41.177Z,100749.70
2023-01-03T05:06:14.729Z,100743.14
2023-01-03T05:08:49.113Z,100740.42
2023-01-03T05:11:22.157Z,100738.36
2023-01-03T05:13:54.992Z,100743.55
2023-01-03T05:16:28.285Z,100740.69
2023-01-03T05:19:01.017Z,100738.50
2023-01-03T05:21:51.925Z,100739.43
2023-01-03T05:24:42.546Z,100740.95
2023-01-03T05:27:15.358Z,100744.48
2023-01-03T05:29:51.997Z,100740.19
2023-01-03T05:32:25.329Z,100738.89
2023-01-03T05:34:59.617Z,100736.04
2023-01-03T05:37:32.321Z,100739.95
2023-01-03T05:40:06.303Z,100730.36
2023-01-03T05:42:40.959Z,100731.64
2023-01-03T05:45:13.912Z,100740.21
2023-01-03T05:47:47.010Z,100735.56
2023-01-03T05:50:19.914Z,100741.90
2023-01-03T05:52:53.087Z,100742.92
2023-01-03T05:55:26.892Z,100742.16
2023-01-03T05:57:59.896Z,100742.69
2023-01-03T06:00:33.204Z,100743.19
2023-01-03T06:03:06.124Z,100744.75
2023-01-03T06:05:44.568Z,100741.12
2023-01-03T06:08:14.257Z,100743.84
2023-01-03T06:10:48.770Z,100741.38
2023-01-03T06:13:24.010Z,100749.16
2023-01-03T06:16:14.496Z,100743.44
2023-01-03T06:18:47.570Z,100740.35
2023-01-03T06:21:21.030Z,100739.42
2023-01-03T06:23:53.996Z,100739.42
2023-01-03T06:26:27.819Z,100739.69
2023-01-03T06:29:01.441Z,100744.48
2023-01-03T06:31:34.464Z,100741.78
2023-01-03T06:34:07.516Z,100742.67
2023-01-03T06:36:41.398Z,100733.33
2023-01-03T06:39:14.067Z,100732.56
2023-01-03T06:41:46.796Z,100732.04
2023-01-03T06:44:20.106Z,100724.39
2023-01-03T06:46:54.469Z,100724.66
2023-01-03T06:49:47.717Z,100719.98
2023-01-03T06:52:38.136Z,100718.95
2023-01-03T06:55:10.829Z,100712.84
2023-01-03T06:57:43.727Z,100704.69
2023-01-03T07:00:17.292Z,100706.86
2023-01-03T07:02:50.215Z,100711.66
2023-01-03T07:05:23.215Z,100709.32
2023-01-03T07:07:57.070Z,100705.69
2023-01-03T07:10:29.993Z,100704.37
2023-01-03T07:13:21.263Z,100702.15
2023-01-03T07:15:55.086Z,100695.91
2023-01-03T07:18:28.611Z,100704.08
2023-01-03T07:21:01.219Z,100703.52
2023-01-03T07:23:34.388Z,100708.19
2023-01-03T07:26:07.616Z,100698.19
2023-01-03T07:28:41.015Z,100699.98
2023-01-03T07:31:13.967Z,100702.27
2023-01-03T07:33:47.296Z,100695.22
2023-01-03T07:36:21.208Z,100695.56
2023-01-03T07:38:56.379Z,100695.03
2023-01-03T07:41:30.762Z,100696.28
2023-01-03T07:44:03.643Z,100694.13
2023-01-03T07:46:36.590Z,100692.74
2023-01-03T07:49:11.916Z,100689.97
2023-01-03T07:51:45.266Z,100676.88
2023-01-03T07:54:18.416Z,100678.00
2023-01-03T07:56:51.093Z,100672.98
2023-01-03T07:59:24.548Z,100678.77
2023-01-03T08:01:57.310Z,100674.15
2023-01-03T08:04:30.482Z,100662.91
2023-01-03T08:07:03.381Z,100666.47
2023-01-03T08:09:54.793Z,100655.34
2023-01-03T08:12:45.627Z,100651.48
2023-01-03T08:15:18.558Z,100649.08
2023-01-03T08:17:51.393Z,100653.55
2023-01-03T08:20:24.962Z,100647.09
2023-01-03T08:22:59.328Z,100644.94
2023-01-03T08:25:35.121Z,100639.78
2023-01-03T08:28:11.536Z,100638.22
2023-01-03T08:30:49.938Z,100638.09
2023-01-03T08:33:23.169Z,100634.23
2023-01-03T08:35:59.697Z,100634.26
2023-01-03T08:38:40.156Z,100623.39
2023-01-03T08:41:15.012Z,100613.52
2023-01-03T08:43:49.297Z,100615.36
2023-01-03T08:46:23.203Z,100607.97
2023-01-03T08:48:56.999Z,100601.59
2023-01-03T08:51:30.314Z,100593.37
2023-01-03T08:54:02.994Z,100588.02
2023-01-03T08:56:36.233Z,100591.55
2023-01-03T08:59:09.190Z,100584.46
2023-01-03T09:01:42.273Z,100574.14
2023-01-03T09:04:15.265Z,100575.96
2023-01-03T09:06:48.209Z,100568.14
2023-01-03T09:09:21.168Z,100566.05
2023-01-03T09:11:54.505Z,100565.66
2023-01-03T09:14:27.510Z,100544.38
2023-01-03T09:17:00.582Z,100559.74
2023-01-03T09:19:34.075Z,100548.19
2023-01-03T09:22:07.082Z,100541.86
2023-01-03T09:24:39.959Z,100542.13
2023-01-03T09:27:13.223Z,100525.88
2023-01-03T09:29:47.054Z,100537.02
2023-01-03T09:32:20.011Z,100520.03
2023-01-03T09:34:52.975Z,100512.48
2023-01-03T09:37:26.577Z,100502.71
2023-01-03T09:39:59.295Z,100502.72
2023-01-03T09:42:51.000Z,100488.80
2023-01-03T09:45:33.112Z,100482.97
2023-01-03T09:48:07.707Z,100478.30
2023-01-03T09:51:05.865Z,100468.92
2023-01-03T09:53:42.599Z,100460.29
2023-01-03T09:56:33.462Z,100458.56
2023-01-03T09:59:36.298Z,100452.22
2023-01-03T10:02:54.333Z,100445.36
2023-01-03T10:05:44.156Z,100446.34
2023-01-03T10:08:33.600Z,100440.82
2023-01-03T10:11:32.527Z,100432.23
2023-01-03T10:14:12.583Z,100437.27
2023-01-03T10:17:01.956Z,100426.39
2023-01-03T10:20:05.432Z,100416.44
2023-01-03T10:22:38.806Z,100407.17
2023-01-03T10:25:15.979Z,100414.45
2023-01-03T10:27:52.533Z,100411.30
2023-01-03T10:31:08.322Z,100398.91
2023-01-03T10:33:50.690Z,100394.75
2023-01-03T10:36:24.530Z,100385.11
2023-01-03T10:39:10.864Z,100383.59
2023-01-03T10:41:48.757Z,100382.84
2023-01-03T10:44:31.267Z,100380.01
2023-01-03T10:47:16.971Z,100379.77
2023-01-03T10:49:51.455Z,100376.01
2023-01-03T10:52:24.209Z,100378.38
2023-01-03T10:55:07.631Z,100369.39
2023-01-03T10:57:58.057Z,100370.88
2023-01-03T11:00:40.927Z,100367.92
2023-01-03T11:03:18.868Z,100355.68
2023-01-03T11:06:08.768Z,100359.60
2023-01-03T11:08:50.309Z,100355.59
2023-01-03T11:11:33.037Z,100345.05
2023-01-03T11:14:28.466Z,100336.45
2023-01-03T11:17:06.759Z,100327.80
2023-01-03T11:19:41.430Z,100332.86
2023-01-03T11:22:46.016Z,100316.86
2023-01-03T11:25:44.154Z,100310.86
2023-01-03T11:28:33.119Z,100307.02
2023-01-03T11:31:33.427Z,100303.69
2023-01-03T11:35:11.461Z,100304.23
2023-01-03T11:37:50.391Z,100290.34
2023-01-03T11:40:52.208Z,100285.45
2023-01-03T11:43:38.581Z,100282.97
2023-01-03T11:46:40.504Z,100277.61
2023-01-03T11:49:29.999Z,100268.67
2023-01-03T11:52:10.442Z,100273.36
2023-01-03T11:55:09.031Z,100262.39
2023-01-03T11:58:02.681Z,100265.89
2023-01-03T12:00:51.490Z,100256.74
2023-01-03T12:03:50.336Z,100254.46
2023-01-03T12:07:45.313Z,100252.66
2023-01-03T12:10:03.588Z,100249.06
2023-01-03T12:13:02.801Z,100241.06
2023-01-03T12:15:53.525Z,100238.70
2023-01-03T12:18:58.223Z,100235.50
2023-01-03T12:21:40.537Z,100224.66
2023-01-03T12:24:41.541Z,100202.26
2023-01-03T12:27:32.927Z,100198.25
2023-01-03T12:30:19.329Z,100210.33
2023-01-03T12:32:58.475Z,100211.17
2023-01-03T12:35:54.168Z,100215.00
2023-01-03T12:38:34.555Z,100214.92
2023-01-03T12:41:29.890Z,100217.84
2023-01-03T12:44:26.596Z,100215.14
2023-01-03T12:47:03.290Z,100204.94
2023-01-03T12:49:44.692Z,100209.53
2023-01-03T12:52:18.849Z,100205.45
2023-01-03T12:54:59.164Z,100203.05
2023-01-03T12:57:56.156Z,100198.88
2023-01-03T13:00:52.759Z,100192.69
2023-01-03T13:03:53.600Z,100195.55
2023-01-03T13:06:39.651Z,100199.91
2023-01-03T13:09:23.270Z,100194.05
2023-01-03T13:11:58.584Z,100200.79
2023-01-03T13:14:33.555Z,100200.45
2023-01-03T13:17:19.360Z,100205.38
2023-01-03T13:20:03.088Z,100205.03
2023-01-03T13:23:00.135Z,100217.74
2023-01-03T13:25:45.072Z,100201.64
2023-01-03T13:28:25.793Z,100210.10
2023-01-03T13:31:24.011Z,100208.45
2023-01-03T13:33:59.112Z,100199.87
2023-01-03T13:36:56.377Z,100201.16
2023-01-03T13:39:52.981Z,100194.84
2023-01-03T13:42:33.138Z,100197.78
2023-01-03T13:45:29.022Z,100187.88
2023-01-03T13:48:17.485Z,100200.37
2023-01-03T13:51:19.516Z,100205.14
2023-01-03T13:54:06.220Z,100196.06
2023-01-03T13:56:52.893Z,100192.17
2023-01-03T13:59:35.928Z,100197.06
2023-01-03T14:02:39.464Z,100200.62
2023-01-03T14:05:32.189Z,100192.34
2023-01-03T14:08:18.478Z,100203.70
2023-01-03T14:11:04.834Z,100202.03
2023-01-03T14:13:54.900Z,100207.95
2023-01-03T14:16:47.494Z,100205.58
2023-01-03T14:19:37.878Z,100197.56
2023-01-03T14:22:31.407Z,100184.34
2023-01-03T14:25:00.951Z,100183.78
2023-01-03T14:27:43.604Z,100175.86
2023-01-03T14:30:26.393Z,100184.90
2023-01-03T14:32:59.787Z,100191.61
2023-01-03T14:35:42.904Z,100182.72
2023-01-03T14:38:33.669Z,100179.41
2023-01-03T14:41:06.730Z,100183.96
2023-01-03T14:43:39.773Z,100181.08
2023-01-03T14:46:14.026Z,100174.47
2023-01-03T14:48:48.391Z,100170.46
2023-01-03T14:51:21.493Z,100179.91
2023-01-03T14:53:55.499Z,100177.48
2023-01-03T14:56:27.637Z,100178.12
2023-01-03T14:59:00.790Z,100184.83
2023-01-03T15:01:34.284Z,100185.66
2023-01-03T15:04:07.704Z,100193.66
2023-01-03T15:06:43.106Z,100189.98
2023-01-03T15:09:22.739Z,100191.19
2023-01-03T15:11:59.619Z,100188.16
2023-01-03T15:14:40.237Z,100186.95
2023-01-03T15:17:16.710Z,100190.17
2023-01-03T15:19:55.281Z,100191.66
2023-01-03T15:22:35.522Z,100186.13
2023-01-03T15:25:22.331Z,100182.73
2023-01-03T15:27:55.606Z,100185.95
2023-01-03T15:30:29.866Z,100184.23
2023-01-03T15:33:05.876Z,100184.83
2023-01-03T15:35:43.637Z,100179.68
2023-01-03T15:38:21.300Z,100186.20
2023-01-03T15:40:54.422Z,100180.51
2023-01-03T15:43:32.490Z,100177.81
2023-01-03T15:46:15.165Z,100175.91
2023-01-03T15:48:55.534Z,100175.23
2023-01-03T15:51:28.696Z,100181.05
2023-01-03T15:54:02.194Z,100181.17
2023-01-03T15:56:37.635Z,100180.00
2023-01-03T15:59:13.309Z,100177.11
2023-01-03T16:01:46.166Z,100176.40
2023-01-03T16:04:19.766Z,100183.31
2023-01-03T16:06:53.626Z,100191.56
2023-01-03T16:09:26.508Z,100199.30
2023-01-03T16:12:00.453Z,100192.77
2023-01-03T16:14:39.886Z,100194.28
2023-01-03T16:17:22.606Z,100185.70
2023-01-03T16:19:52.576Z,100195.81
2023-01-03T16:22:35.383Z,100196.71
2023-01-03T16:25:01.417Z,100182.98
2023-01-03T16:27:34.559Z,100195.80
2023-01-03T16:30:08.912Z,100200.22
2023-01-03T16:32:42.612Z,100200.30
2023-01-03T16:35:18.667Z,100196.02
2023-01-03T16:37:51.326Z,100193.59
2023-01-03T16:40:24.549Z,100192.81
2023-01-03T16:42:57.784Z,100189.48
2023-01-03T16:45:31.391Z,100196.20
2023-01-03T16:48:05.702Z,100204.38
2023-01-03T16:50:41.251Z,100207.39
2023-01-03T16:53:30.593Z,100209.38
2023-01-03T16:56:04.858Z,100212.28
2023-01-03T16:58:38.246Z,100208.89
2023-01-03T17:01:12.056Z,100202.97
2023-01-03T17:03:45.033Z,100208.58
2023-01-03T17:06:35.314Z,100213.16
2023-01-03T17:09:07.176Z,100216.17
2023-01-03T17:11:40.969Z,100222.25
2023-01-03T17:14:18.881Z,100232.08
2023-01-03T17:16:52.629Z,100228.97
2023-01-03T17:20:02.750Z,100238.48
2023-01-03T17:22:03.159Z,100243.90
2023-01-03T17:24:36.334Z,100246.02
2023-01-03T17:27:23.861Z,100236.72
2023-01-03T17:30:01.969Z,100238.63
2023-01-03T17:32:35.596Z,100243.12
2023-01-03T17:35:12.014Z,100237.23
2023-01-03T17:38:23.451Z,100247.13
2023-01-03T17:40:33.330Z,100249.25
2023-01-03T17:43:02.140Z,100256.44
2023-01-03T17:45:53.517Z,100261.63
2023-01-03T17:48:44.862Z,100261.73
2023-01-03T17:51:17.864Z,100271.36
2023-01-03T17:53:51.641Z,100267.25
2023-01-03T17:56:24.496Z,100265.84
2023-01-03T17:58:57.425Z,100267.45
2023-01-03T18:01:30.350Z,100271.15
2023-01-03T18:04:03.943Z,100267.41
2023-01-03T18:06:38.676Z,100277.14
2023-01-03T18:09:15.591Z,100272.72
2023-01-03T18:11:48.802Z,100265.53
2023-01-03T18:14:22.267Z,100269.23
2023-01-03T18:16:56.272Z,100267.00
2023-01-03T18:19:29.092Z,100269.23
2023-01-03T18:22:01.940Z,100270.52
2023-01-03T18:24:35.419Z,100268.03
2023-01-03T18:27:09.539Z,100289.62
2023-01-03T18:29:43.318Z,100284.00
2023-01-03T18:32:31.461Z,100286.18
2023-01-03T18:35:04.588Z,100278.17
2023-01-03T18:37:38.764Z,100295.06
2023-01-03T18:40:21.802Z,100297.98
2023-01-03T18:43:10.401Z,100290.48
2023-01-03T18:45:44.285Z,100295.05
2023-01-03T18:48:23.229Z,100296.55
2023-01-03T18:50:59.329Z,100292.92
2023-01-03T18:53:32.613Z,100303.03
2023-01-03T18:56:04.720Z,100298.92
2023-01-03T18:58:42.385Z,100308.02
2023-01-03T19:01:15.281Z,100307.61
2023-01-03T19:03:49.860Z,100298.73
2023-01-03T19:06:28.977Z,100296.80
2023-01-03T19:09:04.645Z,100302.52
2023-01-03T19:11:39.605Z,100304.44
2023-01-03T19:14:13.610Z,100304.92
2023-01-03T19:16:48.576Z,100299.83
2023-01-03T19:19:21.306Z,100302.13
2023-01-03T19:21:54.128Z,100305.75
2023-01-03T19:24:39.005Z,100306.75
2023-01-03T19:27:24.316Z,100306.55
2023-01-03T19:29:57.235Z,100314.53
2023-01-03T19:32:31.116Z,100319.82
2023-01-03T19:35:04.152Z,100318.57
2023-01-03T19:37:37.362Z,100325.78
2023-01-03T19:40:13.572Z,100329.27
2023-01-03T19:42:53.329Z,100324.59
2023-01-03T19:45:41.575Z,100338.37
2023-01-03T19:48:22.273Z,100342.72
2023-01-03T19:50:55.108Z,100334.63
2023-01-03T19:53:28.199Z,100343.73
2023-01-03T19:56:01.200Z,100342.02
2023-01-03T19:58:37.809Z,100346.70
2023-01-03T20:01:17.186Z,100335.83
2023-01-03T20:03:50.934Z,100348.97
2023-01-03T20:06:24.191Z,100335.39
2023-01-03T20:08:57.061Z,100341.14
2023-01-03T20:11:29.845Z,100340.81
2023-01-03T20:14:03.921Z,100345.02
2023-01-03T20:16:37.045Z,100349.58
2023-01-03T20:19:23.687Z,100345.98
2023-01-03T20:21:56.998Z,100351.47
2023-01-03T20:24:31.404Z,100343.67
2023-01-03T20:27:04.592Z,100350.95
2023-01-03T20:29:37.794Z,100348.87
2023-01-03T20:32:12.070Z,100345.45
2023-01-03T20:34:45.232Z,100354.18
2023-01-03T20:37:20.297Z,100355.84
2023-01-03T20:39:53.456Z,100349.09
2023-01-03T20:42:26.323Z,100352.17
2023-01-03T20:44:59.458Z,100355.59
2023-01-03T20:47:32.589Z,100346.50
2023-01-03T20:50:09.023Z,100348.39
2023-01-03T20:52:42.047Z,100342.89
2023-01-03T20:55:21.184Z,100344.30
2023-01-03T20:57:54.122Z,100336.92
2023-01-03T21:00:37.640Z,100333.13
2023-01-03T21:03:10.950Z,100338.36
2023-01-03T21:05:44.293Z,100323.39
2023-01-03T21:08:36.583Z,100323.80
2023-01-03T21:11:09.483Z,100311.81
2023-01-03T21:13:42.494Z,100312.48
2023-01-03T21:16:29.286Z,100316.01
2023-01-03T21:19:20.792Z,100319.69
2023-01-03T21:21:56.114Z,100315.95
2023-01-03T21:24:29.668Z,100320.25
2023-01-03T21:27:02.946Z,100324.66
2023-01-03T21:29:35.615Z,100324.88
2023-01-03T21:32:10.224Z,100325.47
2023-01-03T21:34:43.304Z,100319.39
2023-01-03T21:37:17.582Z,100317.68
2023-01-03T21:39:50.958Z,100312.89
2023-01-03T21:42:41.891Z,100305.50
2023-01-03T21:45:16.703Z,100316.27
2023-01-03T21:47:48.850Z,100313.34
2023-01-03T21:50:22.035Z,100317.65
2023-01-03T21:52:55.487Z,100311.94
2023-01-03T21:55:30.057Z,100306.84
2023-01-03T21:58:03.432Z,100308.37
2023-01-03T22:00:36.316Z,100306.70
2023-01-03T22:03:31.997Z,100303.80
2023-01-03T22:06:14.218Z,100313.56
2023-01-03T22:08:47.133Z,100315.16
2023-01-03T22:11:20.708Z,100311.45
2023-01-03T22:13:59.126Z,100308.75
2023-01-03T22:16:32.721Z,100309.64
2023-01-03T22:19:06.569Z,100309.45
2023-01-03T22:21:39.696Z,100309.88
2023-01-03T22:24:12.582Z,100315.81
2023-01-03T22:26:45.498Z,100313.02
2023-01-03T22:29:18.327Z,100307.45
2023-01-03T22:31:51.204Z,100316.55
2023-01-03T22:34:24.201Z,100311.42
2023-01-03T22:36:56.989Z,100311.53
2023-01-03T22:39:29.896Z,100308.26
2023-01-03T22:42:02.778Z,100310.19
2023-01-03T22:44:35.623Z,100316.79
2023-01-03T22:47:08.724Z,100304.87
2023-01-03T22:49:42.701Z,100309.56
2023-01-03T22:52:15.475Z,100308.88
2023-01-03T22:54:48.530Z,100303.28
2023-01-03T22:57:21.494Z,100306.66
2023-01-03T22:59:54.265Z,100304.47
2023-01-03T23:02:29.364Z,100308.78
2023-01-03T23:05:01.931Z,100307.18
2023-01-03T23:07:34.995Z,100309.26
2023-01-03T23:10:09.712Z,100313.98
2023-01-03T23:12:58.274Z,100313.65
2023-01-03T23:15:33.385Z,100308.64
2023-01-03T23:18:06.593Z,100315.70
2023-01-03T23:20:40.925Z,100318.20
2023-01-03T23:23:12.781Z,100319.61
2023-01-03T23:25:45.317Z,100326.73
2023-01-03T23:28:18.257Z,100317.12
2023-01-03T23:30:51.406Z,100320.69
2023-01-03T23:33:24.927Z,100328.05
2023-01-03T23:35:58.556Z,100329.02
2023-01-03T23:38:31.334Z,100331.17
2023-01-03T23:41:10.282Z,100329.43
2023-01-03T23:43:43.114Z,100328.61
2023-01-03T23:46:22.700Z,100336.19
2023-01-03T23:48:59.360Z,100337.55
2023-01-03T23:51:32.086Z,100339.70
2023-01-03T23:54:04.872Z,100343.38
2023-01-03T23:56:37.977Z,100352.34
2023-01-03T23:59:10.801Z,100347.16
